Time;durP1;ratioP1;P1;durP2;ratioP2;P2;SDS_P1;SDS_P2;PMS_P1;PMS_P2;Temp;Humidity;BMP_temperature;BMP_pressure;BME280_temperature;BME280_humidity;BME280_pressure;Samples;Min_cycle;Max_cycle;Signal;HPM_P1;HPM_P2
2022/06/19 00:00:14;;;;;;;12.52;7.57;;;;;;;22.20;81.25;99955.53;694423;28;1845;-80
2022/06/19 00:00:35;;;;;;;14.15;8.18;;;;;;;22.17;81.00;99953.06;697081;28;1498;-80
2022/06/19 00:00:56;;;;;;;12.90;7.60;;;;;;;22.17;80.78;99941.59;700557;28;1534;-79
2022/06/19 00:01:18;;;;;;;13.13;7.10;;;;;;;22.18;81.10;99948.59;697769;28;4880;-80
2022/06/19 00:01:39;;;;;;;11.17;7.63;;;;;;;22.17;80.31;99957.56;695436;28;1315;-79
2022/06/19 00:02:00;;;;;;;12.70;7.70;;;;;;;22.22;80.33;99958.09;689551;28;2167;-79
2022/06/19 00:02:27;;;;;;;10.98;7.25;;;;;;;22.24;80.31;99945.56;694921;28;1285;-79
2022/06/19 00:02:48;;;;;;;11.07;7.25;;;;;;;22.28;80.21;99950.56;697152;28;1106;-80
2022/06/19 00:03:18;;;;;;;11.45;7.18;;;;;;;22.31;80.28;99946.84;696951;28;1025;-80
2022/06/19 00:03:43;;;;;;;12.60;7.43;;;;;;;22.29;80.10;99967.38;696886;28;1985;-80
2022/06/19 00:04:05;;;;;;;14.82;7.53;;;;;;;22.29;80.49;99959.38;699241;28;4337;-79
2022/06/19 00:04:27;;;;;;;13.23;7.32;;;;;;;22.28;80.95;99963.03;694687;28;895;-79
2022/06/19 00:04:50;;;;;;;13.02;7.18;;;;;;;22.27;81.01;99948.84;691515;28;1261;-79
2022/06/19 00:05:12;;;;;;;11.55;7.28;;;;;;;22.27;80.08;99945.34;694979;28;1565;-79
2022/06/19 00:05:33;;;;;;;11.82;7.45;;;;;;;22.29;81.17;99948.75;690816;28;1255;-79
2022/06/19 00:05:54;;;;;;;12.23;7.60;;;;;;;22.28;81.61;99949.72;692368;28;1121;-79
2022/06/19 00:06:18;;;;;;;11.85;7.63;;;;;;;22.27;80.74;99956.00;691380;28;1265;-79
2022/06/19 00:06:39;;;;;;;11.80;7.80;;;;;;;22.28;80.45;99973.69;693739;28;1188;-79
2022/06/19 00:07:00;;;;;;;11.25;7.50;;;;;;;22.25;80.68;99957.88;697865;28;4374;-79
2022/06/19 00:07:22;;;;;;;10.45;7.40;;;;;;;22.26;80.39;99941.84;695502;28;1182;-79
2022/06/19 00:07:43;;;;;;;11.45;7.20;;;;;;;22.25;80.04;99937.47;696117;28;1298;-79
2022/06/19 00:08:04;;;;;;;10.75;7.03;;;;;;;22.28;79.84;99971.03;688824;28;1310;-79
2022/06/19 00:08:24;;;;;;;12.82;6.95;;;;;;;22.32;79.84;99939.72;689204;28;974;-79
2022/06/19 00:08:48;;;;;;;12.73;7.23;;;;;;;22.31;79.82;99954.84;689924;28;1766;-79
2022/06/19 00:09:08;;;;;;;13.35;7.60;;;;;;;22.28;80.09;99971.84;691612;28;1249;-80
2022/06/19 00:09:29;;;;;;;13.50;7.33;;;;;;;22.24;79.91;99933.06;697980;28;1144;-79
2022/06/19 00:09:50;;;;;;;12.30;7.07;;;;;;;22.25;80.32;99957.88;699866;28;1294;-79
2022/06/19 00:10:10;;;;;;;12.25;6.75;;;;;;;22.24;80.71;99969.50;695158;28;4349;-79
2022/06/19 00:10:31;;;;;;;11.85;7.45;;;;;;;22.25;80.28;99942.78;694379;28;1353;-79
2022/06/19 00:10:52;;;;;;;12.07;7.30;;;;;;;22.20;80.71;99934.22;692487;28;923;-79
2022/06/19 00:11:14;;;;;;;11.40;6.90;;;;;;;22.14;81.17;99953.28;697287;28;820;-79
2022/06/19 00:11:36;;;;;;;11.98;6.95;;;;;;;22.04;81.40;99971.66;694682;28;1296;-79
2022/06/19 00:11:57;;;;;;;13.30;7.50;;;;;;;21.98;81.84;99972.03;695212;28;1336;-79
2022/06/19 00:12:18;;;;;;;13.67;8.03;;;;;;;21.94;81.68;99936.78;691750;28;1469;-79
2022/06/19 00:12:39;;;;;;;13.35;7.38;;;;;;;21.91;82.08;99941.44;691576;28;970;-79
2022/06/19 00:13:00;;;;;;;11.45;6.90;;;;;;;21.97;81.70;99937.53;691435;28;4331;-79
2022/06/19 00:13:21;;;;;;;11.17;6.97;;;;;;;21.99;81.33;99940.94;700337;28;1398;-79
2022/06/19 00:13:42;;;;;;;12.48;7.20;;;;;;;21.98;80.98;99953.38;699728;28;1811;-79
2022/06/19 00:14:03;;;;;;;12.15;7.18;;;;;;;21.96;81.88;99957.09;697746;28;1199;-79
2022/06/19 00:14:24;;;;;;;12.77;6.82;;;;;;;21.94;81.98;99938.56;697250;28;1899;-80
2022/06/19 00:14:45;;;;;;;14.15;7.28;;;;;;;21.93;81.44;99950.16;691610;28;1218;-79
2022/06/19 00:15:06;;;;;;;11.63;7.18;;;;;;;21.95;82.59;99929.66;695329;28;1404;-79
2022/06/19 00:15:28;;;;;;;12.73;7.30;;;;;;;21.95;82.23;99934.97;696796;28;1670;-80
2022/06/19 00:15:51;;;;;;;12.55;7.25;;;;;;;21.91;83.74;99952.09;699349;28;1336;-79
2022/06/19 00:16:12;;;;;;;9.38;6.80;;;;;;;21.89;83.77;99946.84;692936;28;4314;-80
2022/06/19 00:16:33;;;;;;;10.23;6.85;;;;;;;21.86;82.61;99931.09;689610;28;3535;-80
2022/06/19 00:16:53;;;;;;;11.40;7.10;;;;;;;21.87;82.74;99932.78;691822;28;935;-79
2022/06/19 00:17:15;;;;;;;10.90;7.23;;;;;;;21.85;83.05;99931.16;691807;28;2127;-80
2022/06/19 00:17:38;;;;;;;12.18;7.03;;;;;;;21.87;82.62;99937.25;696951;28;1266;-79
2022/06/19 00:18:01;;;;;;;11.88;7.20;;;;;;;21.85;83.49;99960.44;695290;28;1214;-79
2022/06/19 00:18:22;;;;;;;10.20;6.90;;;;;;;21.86;82.37;99935.53;693278;28;1056;-79
2022/06/19 00:18:43;;;;;;;11.73;6.85;;;;;;;21.86;81.93;99931.09;695875;28;1800;-79
2022/06/19 00:19:04;;;;;;;9.83;7.00;;;;;;;21.87;82.10;99934.59;693455;28;4333;-79
2022/06/19 00:19:24;;;;;;;10.95;7.40;;;;;;;21.84;82.11;99926.81;691906;28;879;-80
2022/06/19 00:19:44;;;;;;;13.00;6.70;;;;;;;21.83;81.81;99919.78;693300;28;897;-79
2022/06/19 00:20:07;;;;;;;12.80;6.70;;;;;;;21.86;82.02;99930.22;694790;28;948;-80
2022/06/19 00:20:27;;;;;;;11.15;6.53;;;;;;;21.85;81.69;99926.72;694927;28;1341;-80
2022/06/19 00:20:48;;;;;;;9.87;6.93;;;;;;;21.87;81.78;99930.13;695834;28;1529;-79
2022/06/19 00:21:09;;;;;;;11.18;6.78;;;;;;;21.86;81.76;99940.88;697649;28;931;-79
2022/06/19 00:21:30;;;;;;;10.82;6.53;;;;;;;21.86;82.28;99931.09;691545;28;1251;-79
2022/06/19 00:21:50;;;;;;;11.18;7.28;;;;;;;21.88;82.11;99923.84;692310;28;1345;-79
2022/06/19 00:22:11;;;;;;;11.90;7.30;;;;;;;21.88;83.01;99923.84;689937;28;4477;-79
2022/06/19 00:22:32;;;;;;;10.65;7.03;;;;;;;21.88;83.06;99933.66;690185;28;1022;-79
2022/06/19 00:22:55;;;;;;;11.48;6.95;;;;;;;21.85;83.06;99931.16;694022;28;886;-79
2022/06/19 00:23:19;;;;;;;13.37;7.27;;;;;;;21.81;83.65;99921.66;693720;28;1166;-79
2022/06/19 00:23:39;;;;;;;13.55;6.97;;;;;;;21.77;83.53;99958.28;692487;28;1802;-79
2022/06/19 00:24:03;;;;;;;11.87;6.90;;;;;;;21.76;82.96;99920.16;693099;28;1505;-79
2022/06/19 00:24:23;;;;;;;10.23;6.85;;;;;;;21.76;83.00;99924.63;692140;28;1745;-79
2022/06/19 00:24:44;;;;;;;11.80;6.60;;;;;;;21.74;83.32;99938.03;692068;28;959;-80
2022/06/19 00:25:08;;;;;;;12.55;6.65;;;;;;;21.69;83.23;99921.50;694539;28;4303;-79
2022/06/19 00:25:28;;;;;;;12.05;7.00;;;;;;;21.71;83.30;99926.72;693893;28;1544;-79
2022/06/19 00:25:49;;;;;;;12.70;6.90;;;;;;;21.68;84.17;99943.75;695037;28;1633;-80
2022/06/19 00:26:13;;;;;;;13.10;7.40;;;;;;;21.69;83.73;99924.16;694328;28;1460;-80
2022/06/19 00:26:33;;;;;;;13.07;7.47;;;;;;;21.70;84.47;99920.56;693970;28;1307;-79
2022/06/19 00:26:54;;;;;;;10.45;7.57;;;;;;;21.70;84.17;99919.72;694358;28;1168;-79
2022/06/19 00:27:15;;;;;;;11.20;7.10;;;;;;;21.71;83.99;99916.97;697223;28;1449;-79
2022/06/19 00:27:37;;;;;;;9.48;7.03;;;;;;;21.74;84.01;99922.06;694435;28;1172;-80
2022/06/19 00:27:57;;;;;;;10.57;7.13;;;;;;;21.77;83.23;99915.72;694320;28;1152;-79
2022/06/19 00:28:18;;;;;;;10.98;7.43;;;;;;;21.79;83.17;99939.56;691533;28;4413;-79
2022/06/19 00:28:40;;;;;;;12.97;7.00;;;;;;;21.77;83.94;99944.97;691961;28;890;-79
2022/06/19 00:29:05;;;;;;;13.07;7.10;;;;;;;21.72;83.80;99947.94;691908;28;1276;-80
2022/06/19 00:29:27;;;;;;;12.07;6.88;;;;;;;21.69;82.93;99910.03;695992;28;1463;-80
2022/06/19 00:29:48;;;;;;;12.80;6.97;;;;;;;21.68;82.95;99910.97;695564;28;1285;-80
2022/06/19 00:30:13;;;;;;;10.52;7.00;;;;;;;21.72;83.40;99916.00;697619;28;1257;-79
2022/06/19 00:30:34;;;;;;;10.10;6.70;;;;;;;21.72;83.06;99918.69;694359;28;1324;-79
2022/06/19 00:30:54;;;;;;;11.65;6.88;;;;;;;21.70;82.82;99928.53;692303;28;1362;-79
2022/06/19 00:31:15;;;;;;;11.75;6.78;;;;;;;21.70;82.99;99904.59;696616;28;4295;-79
2022/06/19 00:31:35;;;;;;;10.80;6.83;;;;;;;21.68;83.21;99922.47;700391;28;1138;-79
2022/06/19 00:31:56;;;;;;;12.18;6.88;;;;;;;21.66;83.53;99907.56;692672;28;1041;-80
2022/06/19 00:32:18;;;;;;;11.55;6.97;;;;;;;21.63;84.65;99903.28;696306;28;1163;-79
2022/06/19 00:32:41;;;;;;;10.23;6.65;;;;;;;21.61;84.25;99905.16;692240;28;1258;-79
2022/06/19 00:33:05;;;;;;;11.35;7.10;;;;;;;21.59;84.86;99901.78;689847;28;1313;-79
2022/06/19 00:33:25;;;;;;;11.23;7.00;;;;;;;21.56;85.07;99897.50;691837;28;1048;-80
2022/06/19 00:33:48;;;;;;;10.53;6.30;;;;;;;21.54;85.41;99909.16;695620;28;903;-79
2022/06/19 00:34:09;;;;;;;9.65;6.45;;;;;;;21.53;85.19;99902.13;693733;28;4280;-80
2022/06/19 00:34:32;;;;;;;10.97;6.93;;;;;;;21.53;85.18;99896.81;696418;28;1576;-80
2022/06/19 00:34:52;;;;;;;10.45;6.80;;;;;;;21.53;84.13;99896.81;694948;28;1294;-79
2022/06/19 00:35:13;;;;;;;12.30;6.60;;;;;;;21.50;84.43;99897.00;688209;28;1307;-79
2022/06/19 00:35:34;;;;;;;12.18;6.78;;;;;;;21.47;84.50;99923.78;691301;28;1231;-80
2022/06/19 00:35:55;;;;;;;12.02;7.03;;;;;;;21.43;85.24;99918.66;697597;28;1302;-80
2022/06/19 00:36:15;;;;;;;11.00;6.80;;;;;;;21.40;84.59;99910.84;697530;28;1260;-79
2022/06/19 00:36:36;;;;;;;10.55;7.03;;;;;;;21.42;84.39;99919.59;698167;28;896;-79
2022/06/19 00:36:56;;;;;;;10.63;7.00;;;;;;;21.40;84.47;99913.50;695271;28;1293;-80
2022/06/19 00:37:17;;;;;;;10.45;6.63;;;;;;;21.42;84.93;99914.28;694802;28;4270;-79
2022/06/19 00:37:37;;;;;;;11.10;6.40;;;;;;;21.43;85.30;99892.06;697220;28;1601;-80
2022/06/19 00:38:00;;;;;;;13.98;6.93;;;;;;;21.43;84.73;99897.38;695178;28;1766;-79
2022/06/19 00:38:20;;;;;;;12.27;6.82;;;;;;;21.41;85.17;99901.94;697626;28;1211;-79
2022/06/19 00:38:41;;;;;;;11.83;6.70;;;;;;;21.37;85.37;99913.69;695701;28;1262;-79
2022/06/19 00:39:01;;;;;;;12.13;7.10;;;;;;;21.34;85.49;99882.00;693901;28;4900;-80
2022/06/19 00:39:24;;;;;;;14.40;7.05;;;;;;;21.30;85.41;99912.38;693461;28;1427;-79
2022/06/19 00:39:45;;;;;;;11.82;6.60;;;;;;;21.31;85.85;99889.28;691700;28;1327;-80
2022/06/19 00:40:08;;;;;;;11.17;7.20;;;;;;;21.27;86.44;99908.09;693548;28;4304;-79
2022/06/19 00:40:30;;;;;;;10.48;6.85;;;;;;;21.23;86.64;99885.31;691508;28;1340;-80
2022/06/19 00:40:58;;;;;;;10.55;6.93;;;;;;;21.25;86.02;99899.38;693852;28;928;-79
2022/06/19 00:41:19;;;;;;;9.93;6.50;;;;;;;21.27;86.48;99905.44;698421;28;1562;-80
2022/06/19 00:41:39;;;;;;;13.00;6.70;;;;;;;21.25;86.36;99879.91;697570;28;1301;-79
2022/06/19 00:42:00;;;;;;;11.23;6.35;;;;;;;21.15;86.30;99876.97;697394;28;1314;-80
2022/06/19 00:42:24;;;;;;;11.73;6.87;;;;;;;21.11;86.51;99896.69;694606;28;1169;-80
2022/06/19 00:42:45;;;;;;;12.10;7.40;;;;;;;21.08;86.14;99902.22;693005;28;983;-80
2022/06/19 00:43:06;;;;;;;11.32;7.20;;;;;;;21.07;86.82;99904.03;695992;28;4301;-80
2022/06/19 00:43:27;;;;;;;10.80;6.95;;;;;;;21.05;87.44;99879.31;694875;28;1187;-79
2022/06/19 00:44:05;;;;;;;11.95;7.05;;;;;;;21.10;86.83;99887.03;694991;28;1263;-81
2022/06/19 00:44:26;;;;;;;11.30;6.70;;;;;;;21.17;86.47;99890.16;693458;28;1570;-79
2022/06/19 00:44:47;;;;;;;11.52;6.60;;;;;;;21.23;86.37;99885.31;694665;28;1567;-79
2022/06/19 00:45:27;;;;;;;10.93;6.70;;;;;;;21.29;86.39;99886.75;695109;28;1043;-79
2022/06/19 00:45:50;;;;;;;12.55;6.85;;;;;;;21.29;86.20;99869.94;703040;28;868;-79
2022/06/19 00:46:42;;;;;;;11.32;6.97;;;;;;;21.17;86.66;99872.41;698182;28;4290;-79
2022/06/19 00:47:07;;;;;;;11.20;7.00;;;;;;;21.15;86.48;99876.13;696269;28;859;-79
2022/06/19 00:47:32;;;;;;;10.23;7.10;;;;;;;21.12;86.65;99874.50;693429;28;1081;-79
2022/06/19 00:47:53;;;;;;;10.98;7.05;;;;;;;21.15;86.44;99882.28;693832;28;1595;-79
2022/06/19 00:48:27;;;;;;;12.05;7.00;;;;;;;21.20;86.22;99876.69;700553;28;1043;-80
2022/06/19 00:48:47;;;;;;;13.10;6.65;;;;;;;21.18;87.77;99878.56;701362;28;1496;-79
2022/06/19 00:49:28;;;;;;;12.20;6.73;;;;;;;21.12;87.90;99871.00;699344;28;4341;-79
2022/06/19 00:49:53;;;;;;;12.30;7.35;;;;;;;21.09;87.90;99872.88;701104;28;1555;-79
2022/06/19 00:50:27;;;;;;;15.00;7.07;;;;;;;21.05;87.21;99875.81;695439;28;1234;-80
2022/06/19 00:50:49;;;;;;;14.63;7.20;;;;;;;20.99;87.74;99877.06;692732;28;1351;-79
2022/06/19 00:51:12;;;;;;;11.50;7.15;;;;;;;20.93;88.13;99882.72;694340;28;1384;-80
2022/06/19 00:51:33;;;;;;;14.52;7.68;;;;;;;20.86;87.71;99876.09;697379;28;1141;-80
2022/06/19 00:52:08;;;;;;;12.27;6.90;;;;;;;20.91;87.93;99874.00;697684;28;1315;-79
2022/06/19 00:52:35;;;;;;;9.43;6.90;;;;;;;20.95;88.36;99870.22;695794;28;4725;-79
2022/06/19 00:52:56;;;;;;;11.82;7.00;;;;;;;20.94;88.28;99871.16;699833;28;1333;-80
2022/06/19 00:53:22;;;;;;;10.43;6.80;;;;;;;20.93;88.31;99869.44;696488;28;1290;-79
2022/06/19 00:53:46;;;;;;;11.25;7.13;;;;;;;20.92;88.27;99873.91;696622;28;1148;-80
2022/06/19 00:54:09;;;;;;;12.57;6.97;;;;;;;20.92;88.60;99870.38;695736;28;1349;-80
2022/06/19 00:54:43;;;;;;;11.88;6.97;;;;;;;20.91;88.54;99876.66;700615;28;1668;-80
2022/06/19 00:55:11;;;;;;;10.93;7.13;;;;;;;20.96;88.46;99877.22;703690;27;4354;-80
2022/06/19 00:55:38;;;;;;;10.43;6.88;;;;;;;21.00;88.12;99873.44;698827;28;1245;-79
2022/06/19 00:56:01;;;;;;;11.85;7.15;;;;;;;20.88;88.67;99872.38;700313;28;1513;-80
2022/06/19 00:56:22;;;;;;;12.63;7.63;;;;;;;20.79;89.46;99875.59;699602;28;1151;-79
2022/06/19 00:56:43;;;;;;;16.38;7.68;;;;;;;20.74;89.55;99865.25;699085;28;1039;-79
2022/06/19 00:57:04;;;;;;;12.02;7.10;;;;;;;20.77;89.56;99866.00;703704;28;880;-79
2022/06/19 00:57:27;;;;;;;10.65;6.88;;;;;;;20.83;89.08;99868.31;697806;28;1981;-80
2022/06/19 00:57:57;;;;;;;11.45;7.38;;;;;;;20.91;88.55;99874.00;695180;28;1046;-80
2022/06/19 00:58:31;;;;;;;10.95;6.93;;;;;;;20.91;88.07;99866.03;697289;28;4268;-79
2022/06/19 00:58:52;;;;;;;12.40;7.10;;;;;;;20.96;87.66;99866.59;691590;28;2308;-79
2022/06/19 00:59:14;;;;;;;11.63;6.80;;;;;;;20.92;87.54;99886.31;693208;28;1043;-80
2022/06/19 00:59:38;;;;;;;11.38;7.03;;;;;;;20.92;87.71;99862.41;695552;28;1443;-80
2022/06/19 01:00:05;;;;;;;11.65;7.25;;;;;;;21.04;87.04;99903.34;697791;28;1125;-79
2022/06/19 01:00:28;;;;;;;12.93;7.57;;;;;;;21.05;87.34;99884.63;693871;28;1424;-80
2022/06/19 01:00:54;;;;;;;11.82;7.28;;;;;;;21.05;86.69;99870.50;695984;28;1220;-80
2022/06/19 01:01:19;;;;;;;10.40;6.75;;;;;;;21.06;86.43;99862.44;693907;28;4358;-79
2022/06/19 01:01:42;;;;;;;13.63;7.03;;;;;;;21.11;87.04;99874.59;696380;28;1413;-79
2022/06/19 01:02:03;;;;;;;11.10;6.97;;;;;;;21.05;87.88;99878.47;697410;28;908;-79
2022/06/19 01:02:24;;;;;;;10.68;7.10;;;;;;;21.03;87.61;99872.41;695909;28;1272;-79
2022/06/19 01:02:44;;;;;;;10.38;6.85;;;;;;;21.02;88.01;99866.25;699791;28;950;-79
2022/06/19 01:03:07;;;;;;;10.93;7.13;;;;;;;21.01;88.36;99869.84;697502;28;1772;-79
2022/06/19 01:03:41;;;;;;;9.82;7.25;;;;;;;20.92;89.11;99867.72;690437;28;1187;-79
2022/06/19 01:04:22;;;;;;;11.95;7.70;;;;;;;20.88;88.57;99861.75;693077;28;5351;-80
2022/06/19 01:04:54;;;;;;;12.30;6.88;;;;;;;20.91;88.95;99863.38;691343;28;1525;-79
2022/06/19 01:05:16;;;;;;;10.82;7.05;;;;;;;20.92;88.48;99870.38;691786;28;1093;-80
2022/06/19 01:05:40;;;;;;;10.82;6.88;;;;;;;20.87;89.98;99856.53;686799;28;1460;-80
2022/06/19 01:06:01;;;;;;;13.60;7.00;;;;;;;20.84;89.75;99864.72;694119;28;1226;-80
2022/06/19 01:06:23;;;;;;;10.05;6.95;;;;;;;20.83;89.56;99857.69;696862;28;1224;-80
2022/06/19 01:06:48;;;;;;;11.38;7.40;;;;;;;20.80;90.38;99850.75;698438;28;1278;-79
2022/06/19 01:07:09;;;;;;;10.85;7.03;;;;;;;20.77;90.59;99868.66;699778;28;4294;-79
2022/06/19 01:07:31;;;;;;;11.45;7.18;;;;;;;20.72;90.83;99859.16;694787;28;1245;-80
2022/06/19 01:07:52;;;;;;;11.02;7.03;;;;;;;20.70;90.79;99874.34;691514;28;1013;-80
2022/06/19 01:08:12;;;;;;;10.73;7.00;;;;;;;20.70;89.66;99871.69;696817;28;1290;-80
2022/06/19 01:08:33;;;;;;;12.47;7.23;;;;;;;20.74;89.82;99867.91;697260;28;1219;-79
2022/06/19 01:08:56;;;;;;;10.07;7.05;;;;;;;20.79;90.14;99851.69;694533;28;1297;-80
2022/06/19 01:09:17;;;;;;;11.00;6.88;;;;;;;20.74;91.03;99857.28;692337;28;1394;-80
2022/06/19 01:09:37;;;;;;;12.93;7.30;;;;;;;20.69;90.91;99856.69;691624;28;907;-80
2022/06/19 01:09:58;;;;;;;13.18;7.50;;;;;;;20.71;90.12;99883.16;690009;28;1614;-80
2022/06/19 01:10:18;;;;;;;10.93;6.63;;;;;;;20.72;89.97;99853.00;684572;28;4328;-79
2022/06/19 01:10:42;;;;;;;10.57;6.82;;;;;;;20.80;88.86;99868.50;697120;28;987;-80
2022/06/19 01:11:04;;;;;;;10.02;6.55;;;;;;;20.81;89.28;99870.19;697816;28;1528;-79
2022/06/19 01:11:29;;;;;;;8.45;6.70;;;;;;;20.85;89.46;99864.63;691892;28;1015;-79
2022/06/19 01:11:49;;;;;;;11.13;7.28;;;;;;;20.81;90.59;99854.25;691571;28;979;-79
2022/06/19 01:12:10;;;;;;;10.52;7.22;;;;;;;20.79;90.17;99864.97;689005;28;1405;-79
2022/06/19 01:12:31;;;;;;;10.75;7.35;;;;;;;20.77;90.83;99858.91;692156;28;872;-80
2022/06/19 01:12:52;;;;;;;10.98;7.55;;;;;;;20.74;90.90;99851.97;693900;28;3709;-79
2022/06/19 01:13:16;;;;;;;10.85;7.10;;;;;;;20.72;90.84;99858.31;694259;28;4340;-80
2022/06/19 01:13:37;;;;;;;9.20;7.00;;;;;;;20.70;89.15;99879.66;691865;28;1375;-79
2022/06/19 01:14:03;;;;;;;9.45;6.60;;;;;;;20.73;90.15;99860.03;694369;28;1801;-80
2022/06/19 01:14:26;;;;;;;10.23;6.70;;;;;;;20.72;89.71;99864.47;695492;28;864;-80
2022/06/19 01:14:48;;;;;;;11.07;6.75;;;;;;;20.75;90.16;99852.81;691615;28;1124;-80
2022/06/19 01:15:11;;;;;;;12.30;7.13;;;;;;;20.72;90.82;99848.53;690593;28;1056;-79
2022/06/19 01:15:32;;;;;;;11.02;6.80;;;;;;;20.69;90.86;99872.63;693541;28;1492;-79
2022/06/19 01:15:53;;;;;;;12.67;7.40;;;;;;;20.68;91.02;99854.97;691374;28;1254;-80
2022/06/19 01:16:14;;;;;;;12.35;7.47;;;;;;;20.64;91.22;99874.66;694121;28;4257;-80
2022/06/19 01:16:34;;;;;;;10.30;7.07;;;;;;;20.58;91.46;99872.38;694935;28;1365;-80
2022/06/19 01:16:55;;;;;;;11.60;7.13;;;;;;;20.52;91.76;99857.69;689490;28;1191;-79
2022/06/19 01:17:17;;;;;;;12.00;7.37;;;;;;;20.52;90.30;99870.94;694666;28;1914;-80
2022/06/19 01:17:38;;;;;;;11.07;7.03;;;;;;;20.58;91.27;99852.00;695630;28;884;-80
2022/06/19 01:18:06;;;;;;;10.30;7.35;;;;;;;20.59;90.20;99850.22;697706;28;1385;-80
2022/06/19 01:18:30;;;;;;;9.40;7.13;;;;;;;20.69;90.48;99874.44;694871;28;1186;-79
2022/06/19 01:18:50;;;;;;;9.48;7.10;;;;;;;20.65;91.05;99870.22;693264;28;1515;-80
2022/06/19 01:19:18;;;;;;;12.20;7.40;;;;;;;20.60;91.43;99849.25;691073;28;4328;-80
2022/06/19 01:19:41;;;;;;;12.75;7.00;;;;;;;20.58;91.77;99851.16;688984;28;1015;-80
2022/06/19 01:20:08;;;;;;;9.88;7.07;;;;;;;20.52;91.62;99867.41;689367;28;1529;-79
2022/06/19 01:20:32;;;;;;;11.52;7.07;;;;;;;20.49;91.81;99857.88;693839;28;1611;-80
2022/06/19 01:20:57;;;;;;;11.68;7.57;;;;;;;20.50;91.84;99848.09;694939;28;1528;-79
2022/06/19 01:21:28;;;;;;;11.15;7.47;;;;;;;20.42;93.34;99869.75;695468;28;1026;-80
2022/06/19 01:21:58;;;;;;;10.05;7.22;;;;;;;20.40;91.44;99853.94;699521;28;955;-80
2022/06/19 01:22:47;;;;;;;12.75;7.05;;;;;;;20.41;92.19;99845.03;697281;28;4811;-80
2022/06/19 01:23:13;;;;;;;11.30;7.10;;;;;;;20.33;92.91;99844.63;700116;28;1075;-79
2022/06/19 01:23:41;;;;;;;10.68;7.30;;;;;;;20.32;92.69;99845.56;699580;28;1052;-79
2022/06/19 01:24:08;;;;;;;11.77;7.68;;;;;;;20.30;93.04;99842.16;697716;28;1408;-79
2022/06/19 01:25:06;;;;;;;10.60;7.20;;;;;;;20.28;92.43;99841.38;692292;28;1259;-80
2022/06/19 01:25:32;;;;;;;11.18;7.20;;;;;;;20.29;92.55;99840.44;692794;28;4914;-80
2022/06/19 01:25:53;;;;;;;11.10;7.05;;;;;;;20.32;91.90;99848.22;692576;28;1285;-79
2022/06/19 01:26:14;;;;;;;11.15;7.28;;;;;;;20.30;93.24;99842.16;694611;28;1622;-80
2022/06/19 01:26:41;;;;;;;11.38;7.50;;;;;;;20.26;93.16;99845.94;694048;28;1290;-79
2022/06/19 01:27:05;;;;;;;9.68;7.03;;;;;;;20.25;93.13;99845.06;695366;28;1002;-80
2022/06/19 01:28:56;;;;;;;9.68;6.88;;;;;;;20.45;91.55;99844.84;695866;28;1045;-79
2022/06/19 01:29:19;;;;;;;9.50;7.20;;;;;;;20.37;92.71;99842.66;695222;28;1325;-80
2022/06/19 01:29:40;;;;;;;10.48;7.07;;;;;;;20.32;93.00;99850.03;702100;28;1955;-79
2022/06/19 01:30:03;;;;;;;10.70;6.80;;;;;;;20.31;92.86;99843.00;700306;28;1341;-80
2022/06/19 01:30:26;;;;;;;10.07;7.22;;;;;;;20.27;93.17;99845.00;697961;28;1329;-80
2022/06/19 01:30:49;;;;;;;12.55;7.53;;;;;;;20.24;93.08;99847.81;697453;28;1232;-79
2022/06/19 01:31:14;;;;;;;12.00;7.45;;;;;;;20.20;92.39;99843.63;688537;28;4302;-80
2022/06/19 01:31:40;;;;;;;10.90;7.18;;;;;;;20.24;92.68;99843.38;690311;28;1256;-79
2022/06/19 01:32:05;;;;;;;11.18;7.45;;;;;;;20.26;92.81;99835.31;691513;28;1430;-80
2022/06/19 01:32:25;;;;;;;11.50;7.35;;;;;;;20.23;93.44;99844.31;697490;28;1220;-80
2022/06/19 01:32:50;;;;;;;10.38;7.30;;;;;;;20.16;93.95;99842.09;694804;28;1178;-79
2022/06/19 01:33:16;;;;;;;11.40;7.63;;;;;;;20.17;92.80;99841.16;696493;28;1011;-79
2022/06/19 01:33:43;;;;;;;13.25;7.43;;;;;;;20.18;93.76;99842.88;700683;28;1210;-80
2022/06/19 01:34:26;;;;;;;11.77;7.50;;;;;;;20.18;93.45;99826.94;693449;28;4307;-80
2022/06/19 01:34:48;;;;;;;10.43;7.50;;;;;;;20.14;93.27;99841.34;691760;28;1281;-79
2022/06/19 01:35:10;;;;;;;12.30;7.45;;;;;;;20.07;94.46;99841.66;697120;28;1402;-79
2022/06/19 01:35:34;;;;;;;12.73;8.07;;;;;;;20.04;94.59;99828.59;697466;28;1195;-80
2022/06/19 01:35:56;;;;;;;11.02;7.60;;;;;;;20.05;94.04;99829.47;696965;28;953;-79
2022/06/19 01:36:20;;;;;;;11.90;7.25;;;;;;;20.10;93.35;99839.81;698131;28;1097;-80
2022/06/19 01:36:40;;;;;;;11.43;7.07;;;;;;;20.10;93.55;99831.84;700286;28;1085;-80
2022/06/19 01:37:24;;;;;;;10.55;6.95;;;;;;;20.08;94.29;99832.78;696564;28;4309;-80
2022/06/19 01:37:46;;;;;;;12.43;8.10;;;;;;;20.09;94.27;99838.97;699018;28;1238;-80
2022/06/19 01:38:13;;;;;;;10.45;7.50;;;;;;;20.05;94.72;99832.97;698914;28;1181;-80
2022/06/19 01:38:35;;;;;;;11.90;8.20;;;;;;;20.03;95.31;99834.00;694798;28;1266;-80
2022/06/19 01:38:57;;;;;;;12.35;8.25;;;;;;;20.04;93.81;99827.75;694316;28;1359;-79
2022/06/19 01:39:18;;;;;;;12.07;7.43;;;;;;;20.04;94.36;99833.91;689007;28;1424;-79
2022/06/19 01:39:56;;;;;;;12.33;7.67;;;;;;;19.97;95.09;99829.88;694650;28;1403;-79
2022/06/19 01:40:24;;;;;;;9.98;7.57;;;;;;;19.89;95.79;99829.47;692687;28;4328;-80
2022/06/19 01:40:51;;;;;;;10.80;7.53;;;;;;;19.88;95.39;99830.41;690266;28;1315;-80
2022/06/19 01:41:16;;;;;;;12.98;7.20;;;;;;;19.90;94.03;99833.84;691492;28;1176;-79
2022/06/19 01:41:36;;;;;;;10.77;7.00;;;;;;;19.82;95.25;99830.78;689467;28;1246;-80
2022/06/19 01:41:57;;;;;;;10.60;6.83;;;;;;;19.74;95.11;99825.84;694639;28;1308;-79
2022/06/19 01:42:18;;;;;;;10.75;6.95;;;;;;;19.70;95.56;99833.16;695889;28;1186;-79
2022/06/19 01:42:39;;;;;;;9.30;6.50;;;;;;;19.72;94.53;99830.41;695999;28;1068;-80
2022/06/19 01:42:59;;;;;;;10.50;6.95;;;;;;;19.77;94.72;99827.47;695477;28;4324;-80
2022/06/19 01:43:20;;;;;;;12.57;7.07;;;;;;;19.77;95.04;99832.78;691869;28;1170;-79
2022/06/19 01:43:41;;;;;;;12.90;6.85;;;;;;;19.74;94.61;99829.38;693833;28;1396;-80
2022/06/19 01:44:02;;;;;;;11.52;6.22;;;;;;;19.70;94.15;99829.63;694876;28;1509;-80
2022/06/19 01:44:22;;;;;;;10.63;6.30;;;;;;;19.71;93.41;99826.88;696599;28;1184;-80
2022/06/19 01:44:45;;;;;;;10.50;6.13;;;;;;;19.77;93.51;99819.53;692765;28;1319;-80
2022/06/19 01:45:07;;;;;;;9.85;5.90;;;;;;;19.81;93.67;99824.59;692844;28;1235;-80
2022/06/19 01:45:30;;;;;;;9.85;6.15;;;;;;;19.82;93.51;99841.38;693601;28;908;-80
2022/06/19 01:45:52;;;;;;;10.52;6.47;;;;;;;19.82;93.08;99825.47;696266;28;1429;-79
2022/06/19 01:46:15;;;;;;;12.57;6.63;;;;;;;19.81;92.75;99823.75;693033;28;4325;-80
2022/06/19 01:46:35;;;;;;;11.38;6.50;;;;;;;19.81;92.04;99827.25;695701;28;1871;-80
2022/06/19 01:46:56;;;;;;;12.20;6.30;;;;;;;19.85;92.26;99822.63;696529;28;1126;-80
2022/06/19 01:47:20;;;;;;;10.32;6.10;;;;;;;19.90;91.62;99821.44;695708;28;1221;-81
2022/06/19 01:47:44;;;;;;;10.02;5.90;;;;;;;19.86;92.45;99814.59;694888;28;1327;-80
2022/06/19 01:48:07;;;;;;;8.32;5.68;;;;;;;19.79;92.35;99815.00;701200;28;1340;-80
2022/06/19 01:48:30;;;;;;;11.57;5.97;;;;;;;19.74;92.44;99816.13;699270;28;1356;-79
2022/06/19 01:48:52;;;;;;;11.18;5.78;;;;;;;19.71;92.43;99823.38;697251;28;976;-79
2022/06/19 01:49:13;;;;;;;10.18;5.65;;;;;;;19.67;92.20;99813.88;694148;28;4264;-80
2022/06/19 01:49:35;;;;;;;11.10;5.80;;;;;;;19.67;92.49;99820.03;695324;28;1327;-79
2022/06/19 01:50:00;;;;;;;12.05;5.97;;;;;;;19.66;92.61;99814.81;688264;28;1348;-80
2022/06/19 01:50:27;;;;;;;11.70;5.60;;;;;;;19.59;92.41;99803.69;694268;28;1363;-79
2022/06/19 01:50:49;;;;;;;11.77;5.65;;;;;;;19.64;91.52;99806.13;694651;28;836;-79
2022/06/19 01:51:09;;;;;;;11.15;5.78;;;;;;;19.64;91.78;99812.25;693557;28;1276;-80
2022/06/19 01:51:33;;;;;;;10.32;5.55;;;;;;;19.65;92.08;99810.47;699567;28;1461;-80
2022/06/19 01:51:54;;;;;;;11.30;5.80;;;;;;;19.67;91.38;99840.41;699636;28;1177;-79
2022/06/19 01:52:15;;;;;;;12.17;5.77;;;;;;;19.70;92.43;99811.06;691782;28;4292;-79
2022/06/19 01:52:36;;;;;;;13.05;5.57;;;;;;;19.69;92.17;99809.38;694393;28;1219;-79
2022/06/19 01:53:05;;;;;;;11.50;5.70;;;;;;;19.64;91.87;99806.97;698064;28;1186;-80
2022/06/19 01:53:49;;;;;;;9.20;5.30;;;;;;;19.63;92.19;99807.03;699509;28;1395;-80